Time;durP1;ratioP1;P1;durP2;ratioP2;P2;SDS_P1;SDS_P2;PMS_P1;PMS_P2;Temp;Humidity;BMP_temperature;BMP_pressure;BME280_temperature;BME280_humidity;BME280_pressure;Samples;Min_cycle;Max_cycle;Signal;HPM_P1;HPM_P2
2024/01/31 00:00:14;;;;;;;6.40;5.80;;;;;;;21.80;24.14;96769.81;6233437;27;109669;-58
2024/01/31 00:03:17;;;;;;;6.00;5.40;;;;;;;21.79;24.20;96762.88;6219950;28;109113;-59
2024/01/31 00:06:22;;;;;;;6.30;5.70;;;;;;;21.79;24.38;96767.41;6212777;28;110112;-59
2024/01/31 00:09:25;;;;;;;6.13;5.53;;;;;;;21.79;23.94;96762.06;6234786;27;109117;-59
2024/01/31 00:12:28;;;;;;;5.82;5.32;;;;;;;21.80;23.89;96769.00;6234453;28;110077;-59
2024/01/31 00:15:31;;;;;;;5.63;5.13;;;;;;;21.79;24.34;96764.75;6235029;27;109698;-59
2024/01/31 00:18:35;;;;;;;5.70;5.20;;;;;;;21.78;23.89;96757.81;6224818;27;109369;-58
2024/01/31 00:21:41;;;;;;;5.80;5.30;;;;;;;21.75;24.25;96766.31;6234800;27;109113;-58
2024/01/31 00:24:45;;;;;;;5.63;5.13;;;;;;;21.72;24.26;96765.00;6232482;27;109020;-58
2024/01/31 00:27:48;;;;;;;5.93;5.38;;;;;;;21.71;24.23;96765.25;6214553;27;109533;-58
2024/01/31 00:30:51;;;;;;;5.40;4.90;;;;;;;21.71;24.17;96762.59;6205872;27;109239;-58
2024/01/31 00:33:54;;;;;;;5.40;4.90;;;;;;;21.68;23.82;96771.13;6209869;28;109517;-58
2024/01/31 00:36:59;;;;;;;5.80;5.30;;;;;;;21.69;23.75;96764.72;6209816;28;109118;-58
2024/01/31 00:40:03;;;;;;;5.63;5.13;;;;;;;21.66;24.05;96763.34;6208413;27;109096;-58
2024/01/31 00:43:06;;;;;;;5.95;5.40;;;;;;;21.65;24.05;96764.41;6230657;27;110065;-58
2024/01/31 00:46:09;;;;;;;5.60;5.10;;;;;;;21.65;23.80;96763.63;6217264;27;110195;-57
2024/01/31 00:49:13;;;;;;;5.65;5.15;;;;;;;21.64;24.06;96756.69;6224523;27;110138;-58
2024/01/31 00:52:17;;;;;;;5.28;4.78;;;;;;;21.61;23.91;96759.88;6213112;28;109016;-58
2024/01/31 00:55:21;;;;;;;5.20;4.70;;;;;;;21.60;23.79;96751.09;6234938;27;110063;-58
2024/01/31 00:58:24;;;;;;;5.50;5.00;;;;;;;21.61;23.86;96750.03;6225215;27;109519;-58
2024/01/31 01:01:27;;;;;;;5.40;4.90;;;;;;;21.61;23.94;96751.88;6228810;28;110264;-58
2024/01/31 01:04:30;;;;;;;5.20;4.70;;;;;;;21.62;23.62;96748.94;6216219;28;110372;-58
2024/01/31 01:07:36;;;;;;;4.95;4.45;;;;;;;21.62;23.89;96754.28;6233942;27;109480;-57
2024/01/31 01:10:40;;;;;;;4.70;4.30;;;;;;;21.60;24.06;96755.59;6222771;27;109011;-58
2024/01/31 01:13:44;;;;;;;4.80;4.40;;;;;;;21.61;23.81;96744.69;6205762;28;109126;-60
2024/01/31 01:16:47;;;;;;;4.90;4.50;;;;;;;21.61;23.81;96743.88;6215580;28;109463;-57
2024/01/31 01:19:50;;;;;;;5.10;4.60;;;;;;;21.63;23.28;96745.22;6218958;27;109202;-58
2024/01/31 01:22:55;;;;;;;4.90;4.40;;;;;;;21.62;23.62;96740.16;6216290;28;109034;-57
2024/01/31 01:25:58;;;;;;;4.82;4.43;;;;;;;21.62;23.59;96750.81;6215072;27;109500;-57
2024/01/31 01:29:01;;;;;;;4.75;4.28;;;;;;;21.63;23.22;96741.75;6226425;27;109244;-58
2024/01/31 01:32:05;;;;;;;5.10;4.70;;;;;;;21.62;23.54;96740.16;6224581;28;108684;-57
2024/01/31 01:35:08;;;;;;;4.40;4.00;;;;;;;21.62;23.32;96740.97;6211013;28;108931;-58
2024/01/31 01:38:12;;;;;;;5.03;4.57;;;;;;;21.61;23.42;96730.56;6210360;28;109001;-58
2024/01/31 01:41:15;;;;;;;4.50;4.10;;;;;;;21.62;23.33;96729.50;6233097;27;109162;-58
2024/01/31 01:44:18;;;;;;;4.78;4.38;;;;;;;21.63;23.41;96729.25;6232657;28;110317;-58
2024/01/31 01:47:23;;;;;;;5.13;4.63;;;;;;;21.62;23.33;96730.31;6228697;27;109242;-57
2024/01/31 01:50:26;;;;;;;4.50;4.10;;;;;;;21.60;23.59;96728.97;6227924;27;109942;-57
2024/01/31 01:53:33;;;;;;;4.60;4.20;;;;;;;21.61;23.29;96725.25;6228456;27;110330;-56
2024/01/31 01:56:36;;;;;;;4.60;4.20;;;;;;;21.60;23.44;96728.97;6207970;28;109120;-57
2024/01/31 01:59:39;;;;;;;5.00;4.60;;;;;;;21.60;23.50;96732.44;6213479;28;110113;-57
2024/01/31 02:02:42;;;;;;;4.50;4.10;;;;;;;21.59;23.47;96727.38;6232994;27;109871;-57
2024/01/31 02:05:46;;;;;;;4.00;3.70;;;;;;;21.59;23.25;96722.84;6208206;28;109945;-56
2024/01/31 02:08:52;;;;;;;4.70;4.30;;;;;;;21.62;23.16;96724.97;6210600;28;109333;-56
2024/01/31 02:11:55;;;;;;;4.70;4.30;;;;;;;21.61;23.25;96718.06;6197150;28;109127;-58
2024/01/31 02:14:59;;;;;;;4.77;4.37;;;;;;;21.62;22.86;96724.19;6231402;27;109260;-57
2024/01/31 02:18:03;;;;;;;4.80;4.40;;;;;;;21.59;23.04;96717.50;6232470;27;109343;-57
2024/01/31 02:21:07;;;;;;;5.20;4.70;;;;;;;21.60;22.87;96719.13;6223979;28;109033;-57
2024/01/31 02:24:11;;;;;;;5.20;4.70;;;;;;;21.59;23.11;96716.72;6208598;28;109062;-57
2024/01/31 02:27:14;;;;;;;4.97;4.50;;;;;;;21.58;23.26;96712.44;6213354;28;110151;-57
2024/01/31 02:30:17;;;;;;;4.97;4.57;;;;;;;21.57;23.00;96710.84;6230403;27;110336;-57
2024/01/31 02:33:20;;;;;;;5.50;5.00;;;;;;;21.57;22.74;96711.66;6225387;27;109934;-58
2024/01/31 02:36:23;;;;;;;5.60;5.10;;;;;;;21.57;22.95;96703.66;6227685;27;109245;-57
2024/01/31 02:39:28;;;;;;;5.20;4.70;;;;;;;21.57;22.97;96705.53;6222043;27;109107;-59
2024/01/31 02:42:31;;;;;;;5.20;4.70;;;;;;;21.56;22.76;96698.59;6216363;28;109223;-59
2024/01/31 02:45:35;;;;;;;5.25;4.75;;;;;;;21.58;23.13;96707.13;6221536;27;109473;-59
2024/01/31 02:48:39;;;;;;;6.07;5.57;;;;;;;21.56;23.12;96709.25;6214600;27;110203;-58
2024/01/31 02:51:42;;;;;;;6.20;5.60;;;;;;;21.55;23.13;96702.31;6235381;27;109260;-59
2024/01/31 02:54:50;;;;;;;6.30;5.70;;;;;;;21.52;22.93;96704.44;6232346;27;109831;-60
2024/01/31 02:57:54;;;;;;;6.43;5.83;;;;;;;21.55;23.06;96702.31;6203460;28;110202;-60
2024/01/31 03:00:58;;;;;;;6.32;5.75;;;;;;;21.55;22.52;96703.13;6234844;27;110251;-59
2024/01/31 03:04:01;;;;;;;6.18;5.68;;;;;;;21.55;22.86;96697.78;6219601;28;108979;-59
2024/01/31 03:07:04;;;;;;;6.10;5.50;;;;;;;21.51;22.96;96702.06;6231078;28;111616;-59
2024/01/31 03:10:09;;;;;;;6.70;6.10;;;;;;;21.52;22.93;96707.13;6221636;27;109369;-60
2024/01/31 03:13:14;;;;;;;6.80;6.20;;;;;;;21.50;22.83;96700.41;6211648;28;110165;-58
2024/01/31 03:16:17;;;;;;;6.90;6.20;;;;;;;21.49;23.09;96696.97;6236377;27;109106;-59
2024/01/31 03:19:20;;;;;;;6.88;6.28;;;;;;;21.48;22.55;96698.03;6225362;27;109930;-60
2024/01/31 03:22:23;;;;;;;6.70;6.10;;;;;;;21.48;23.07;96692.69;6226065;28;110360;-59
2024/01/31 03:25:28;;;;;;;6.80;6.20;;;;;;;21.49;22.81;96694.28;6223914;27;109038;-59
2024/01/31 03:28:31;;;;;;;7.60;6.90;;;;;;;21.48;22.55;96697.22;6212284;28;109522;-58
2024/01/31 03:31:34;;;;;;;7.10;6.40;;;;;;;21.45;22.59;96685.22;6200857;28;109066;-59
2024/01/31 03:34:37;;;;;;;7.60;6.80;;;;;;;21.47;22.93;96691.09;6221210;28;109517;-59
2024/01/31 03:37:40;;;;;;;7.90;7.20;;;;;;;21.46;22.58;96689.50;6235781;27;109459;-59
2024/01/31 03:40:45;;;;;;;7.55;6.85;;;;;;;21.46;22.80;96683.38;6211310;27;109054;-59
2024/01/31 03:43:48;;;;;;;8.52;7.63;;;;;;;21.19;23.69;96687.00;6204860;28;110395;-61
2024/01/31 03:46:51;;;;;;;7.70;7.00;;;;;;;20.74;24.44;96689.38;6220974;28;109361;-61
2024/01/31 03:49:54;;;;;;;8.13;7.43;;;;;;;20.54;24.71;96687.38;6215439;28;110131;-61
2024/01/31 03:52:57;;;;;;;7.50;6.80;;;;;;;20.46;24.65;96685.16;6217912;27;110420;-59
2024/01/31 03:56:02;;;;;;;8.27;7.47;;;;;;;20.44;24.77;96687.28;6218236;27;112071;-61
2024/01/31 03:59:05;;;;;;;7.22;6.53;;;;;;;20.41;24.59;96693.13;6225486;28;110137;-61
2024/01/31 04:02:08;;;;;;;6.80;6.20;;;;;;;20.45;24.48;96688.88;6211918;28;110420;-61
2024/01/31 04:05:11;;;;;;;7.77;6.70;;;;;;;20.48;24.49;96691.84;6213350;28;110232;-61
2024/01/31 04:08:15;;;;;;;7.57;6.30;;;;;;;20.65;24.47;96691.69;6219891;27;109194;-61
2024/01/31 04:11:19;;;;;;;6.70;6.10;;;;;;;20.92;23.97;96697.72;6235236;27;110111;-60
2024/01/31 04:14:22;;;;;;;10.30;9.40;;;;;;;21.10;24.20;96696.53;6224815;27;109234;-59
2024/01/31 04:17:25;;;;;;;15.20;13.80;;;;;;;21.14;24.06;96696.81;6207321;28;110112;-60
2024/01/31 04:20:28;;;;;;;13.48;12.27;;;;;;;21.27;24.03;96706.19;6221383;28;109233;-60
2024/01/31 04:23:31;;;;;;;14.80;13.40;;;;;;;21.33;24.19;96705.94;6234224;28;109052;-60
2024/01/31 04:26:42;;;;;;;13.93;12.73;;;;;;;21.38;24.43;96703.31;6207987;28;110343;-58
2024/01/31 04:29:45;;;;;;;14.40;13.10;;;;;;;21.40;24.89;96703.84;6223009;28;110276;-60
2024/01/31 04:32:48;;;;;;;12.97;11.77;;;;;;;21.34;24.87;96707.56;6228829;27;109249;-59
2024/01/31 04:35:52;;;;;;;13.13;11.93;;;;;;;21.33;24.67;96705.94;6233194;27;109292;-60
2024/01/31 04:38:55;;;;;;;11.60;10.50;;;;;;;21.24;24.67;96704.84;6204145;28;110075;-60
2024/01/31 04:42:00;;;;;;;11.00;9.90;;;;;;;20.99;24.94;96707.34;6217167;27;110355;-60
2024/01/31 04:45:04;;;;;;;8.70;7.40;;;;;;;20.59;22.50;96711.34;6220678;28;109107;-60
2024/01/31 04:48:07;;;;;;;7.90;7.10;;;;;;;20.41;21.92;96719.72;6234668;27;110217;-60
2024/01/31 04:51:11;;;;;;;7.67;6.90;;;;;;;20.18;23.58;96716.31;6211228;28;111349;-60
2024/01/31 04:54:14;;;;;;;7.70;6.90;;;;;;;20.13;21.47;96713.56;6222490;27;109393;-59
2024/01/31 04:57:20;;;;;;;7.20;6.60;;;;;;;20.03;22.98;96713.50;6211441;27;109412;-59
2024/01/31 05:00:24;;;;;;;7.60;6.90;;;;;;;19.92;22.19;96707.28;6229249;28;109488;-59
2024/01/31 05:03:28;;;;;;;7.57;6.85;;;;;;;19.79;22.49;96702.34;6210380;27;111147;-61
2024/01/31 05:06:31;;;;;;;7.97;7.18;;;;;;;19.67;22.65;96697.19;6215738;27;109468;-61
2024/01/31 05:09:34;;;;;;;8.95;7.10;;;;;;;19.77;23.88;96696.47;6215122;28;109416;-62
2024/01/31 05:12:39;;;;;;;7.73;7.03;;;;;;;19.84;23.31;96698.97;6221132;27;110317;-60
2024/01/31 05:15:42;;;;;;;7.35;6.65;;;;;;;19.83;21.06;96686.72;6232567;27;109117;-63
2024/01/31 05:18:45;;;;;;;7.07;6.33;;;;;;;19.99;21.19;96689.25;6222746;27;109345;-60
2024/01/31 05:21:49;;;;;;;7.07;6.38;;;;;;;20.13;21.79;96702.94;6230967;28;110025;-61
2024/01/31 05:24:53;;;;;;;8.10;6.37;;;;;;;20.18;21.67;96700.34;6223020;27;110284;-60
2024/01/31 05:27:57;;;;;;;6.22;5.63;;;;;;;20.38;21.60;96697.09;6232677;27;109257;-59
2024/01/31 05:31:00;;;;;;;6.80;6.10;;;;;;;20.73;21.24;96701.88;6224204;27;109256;-59
2024/01/31 05:34:03;;;;;;;6.20;5.30;;;;;;;20.97;20.96;96704.13;6207856;28;109043;-60
2024/01/31 05:37:06;;;;;;;6.30;5.47;;;;;;;21.08;20.87;96705.84;6223279;28;110134;-59
2024/01/31 05:40:11;;;;;;;5.80;5.30;;;;;;;21.18;20.94;96708.56;6215580;27;109129;-62
2024/01/31 05:43:18;;;;;;;6.00;5.40;;;;;;;21.20;20.54;96707.25;6208179;28;109101;-60
2024/01/31 05:46:21;;;;;;;6.53;5.93;;;;;;;21.24;20.65;96715.50;6220980;28;110108;-60
2024/01/31 05:49:24;;;;;;;6.45;5.82;;;;;;;21.24;20.65;96720.81;6227302;27;109363;-60
2024/01/31 05:52:27;;;;;;;6.40;5.80;;;;;;;21.27;20.91;96719.50;6232688;27;109094;-62
2024/01/31 05:55:30;;;;;;;7.00;6.40;;;;;;;21.29;20.57;96731.50;6233397;27;110141;-60
2024/01/31 05:58:35;;;;;;;7.60;6.90;;;;;;;21.31;20.80;96726.72;6222171;27;109841;-59
2024/01/31 06:01:38;;;;;;;6.75;6.15;;;;;;;21.33;20.86;96731.78;6232894;27;109072;-60
2024/01/31 06:04:41;;;;;;;7.97;7.27;;;;;;;21.32;20.94;96730.97;6232083;28;110206;-59
2024/01/31 06:07:45;;;;;;;7.70;7.00;;;;;;;21.34;20.53;96739.53;6208344;28;109135;-58
2024/01/31 06:10:49;;;;;;;8.90;8.10;;;;;;;21.33;20.71;96743.22;6209514;28;109315;-59
2024/01/31 06:13:54;;;;;;;9.70;8.90;;;;;;;21.33;20.62;96742.41;6232670;27;109133;-58
2024/01/31 06:16:57;;;;;;;9.23;8.43;;;;;;;21.34;20.90;96738.69;6232431;27;109167;-58
2024/01/31 06:20:00;;;;;;;9.32;8.52;;;;;;;21.30;20.71;96746.41;6229914;27;109990;-58
2024/01/31 06:23:04;;;;;;;10.80;9.90;;;;;;;21.31;20.80;96736.56;6227060;27;110826;-58
2024/01/31 06:26:07;;;;;;;10.43;9.52;;;;;;;21.30;20.84;96734.97;6232618;27;109418;-58
2024/01/31 06:29:17;;;;;;;10.85;9.95;;;;;;;21.30;20.69;96733.09;6232000;27;109303;-58
2024/01/31 06:32:30;;;;;;;12.20;11.10;;;;;;;21.29;20.73;96736.81;6222090;27;109495;-59
2024/01/31 06:35:33;;;;;;;11.85;10.75;;;;;;;21.28;21.43;96740.53;6231709;27;110279;-58
2024/01/31 06:38:36;;;;;;;11.80;10.70;;;;;;;21.28;20.84;96737.09;6232525;28;110090;-58
2024/01/31 06:41:39;;;;;;;12.27;11.18;;;;;;;21.30;21.02;96735.75;6232284;27;109522;-59
2024/01/31 06:44:44;;;;;;;11.90;10.80;;;;;;;21.32;20.71;96743.47;6221605;28;110165;-59
2024/01/31 06:47:47;;;;;;;11.75;10.75;;;;;;;21.32;20.75;96746.94;6232239;27;109859;-59
2024/01/31 06:50:50;;;;;;;11.95;10.95;;;;;;;21.32;20.95;96751.47;6231942;27;109165;-60
2024/01/31 06:53:54;;;;;;;12.55;11.45;;;;;;;21.41;20.89;96745.41;6232439;27;110232;-59
2024/01/31 06:56:57;;;;;;;11.15;10.15;;;;;;;21.81;20.57;96757.28;6202244;27;109282;-58
2024/01/31 07:00:02;;;;;;;11.48;10.48;;;;;;;22.09;20.31;96743.53;6221694;28;109747;-60
2024/01/31 07:03:06;;;;;;;11.60;10.60;;;;;;;22.42;20.46;96739.56;6231951;27;109442;-58
2024/01/31 07:06:11;;;;;;;11.20;10.20;;;;;;;22.62;20.00;96744.16;6222881;27;110029;-58
2024/01/31 07:09:14;;;;;;;11.23;10.13;;;;;;;22.63;20.41;96740.41;6231700;28;110170;-58
2024/01/31 07:12:17;;;;;;;11.18;10.23;;;;;;;22.68;20.62;96743.09;6231889;27;110063;-58
2024/01/31 07:15:22;;;;;;;10.80;9.80;;;;;;;22.67;20.24;96733.47;6231438;27;109114;-59
2024/01/31 07:18:25;;;;;;;11.00;10.00;;;;;;;22.61;20.62;96737.22;6220826;28;110096;-59
2024/01/31 07:21:29;;;;;;;10.55;9.55;;;;;;;22.57;20.68;96738.81;6231412;27;109131;-59
2024/01/31 07:24:33;;;;;;;10.60;9.70;;;;;;;22.60;20.52;96737.47;6231477;27;109678;-59
2024/01/31 07:27:38;;;;;;;10.52;9.52;;;;;;;22.63;20.32;96727.06;6232213;28;110106;-59
2024/01/31 07:30:42;;;;;;;9.97;9.07;;;;;;;22.71;20.43;96725.75;6221586;27;110265;-59
2024/01/31 07:33:46;;;;;;;11.13;10.23;;;;;;;22.72;20.50;96719.34;6231940;27;110256;-59
2024/01/31 07:36:49;;;;;;;10.32;9.43;;;;;;;22.77;20.61;96715.84;6234850;27;109307;-60
2024/01/31 07:39:55;;;;;;;9.70;8.80;;;;;;;22.77;20.73;96723.84;6230595;27;109189;-60
2024/01/31 07:42:58;;;;;;;9.98;9.07;;;;;;;22.77;20.98;96730.00;6230450;28;109587;-60
2024/01/31 07:46:03;;;;;;;9.85;8.85;;;;;;;22.77;21.22;96727.31;6235451;27;109489;-59
2024/01/31 07:49:08;;;;;;;9.55;8.70;;;;;;;22.82;20.87;96726.50;6236139;27;109953;-59
2024/01/31 07:52:12;;;;;;;9.80;8.90;;;;;;;22.84;20.89;96719.03;6224264;27;109153;-60
2024/01/31 07:55:15;;;;;;;9.48;8.65;;;;;;;22.83;20.79;96723.56;6235248;27;109143;-60
2024/01/31 07:58:18;;;;;;;10.10;9.20;;;;;;;22.86;21.08;96722.25;6235148;27;109239;-60
2024/01/31 08:01:23;;;;;;;9.50;8.70;;;;;;;22.79;21.23;96713.72;6235202;27;109321;-60
2024/01/31 08:04:26;;;;;;;9.43;8.63;;;;;;;22.83;21.04;96717.44;6225363;27;109540;-59
2024/01/31 08:07:29;;;;;;;9.90;8.90;;;;;;;22.85;20.96;96710.78;6234644;27;109422;-59
2024/01/31 08:10:32;;;;;;;9.60;8.70;;;;;;;22.85;20.94;96710.78;6235286;27;110445;-60
2024/01/31 08:13:35;;;;;;;9.70;8.90;;;;;;;22.86;21.29;96716.94;6233475;27;109276;-60
2024/01/31 08:16:40;;;;;;;9.10;8.30;;;;;;;22.84;21.13;96711.81;6227487;27;108993;-61
2024/01/31 08:19:43;;;;;;;9.50;8.70;;;;;;;22.85;21.12;96710.78;6234984;27;109325;-60
2024/01/31 08:22:46;;;;;;;9.90;9.00;;;;;;;22.85;20.96;96707.28;6235109;27;110128;-60
2024/01/31 08:25:49;;;;;;;9.00;8.20;;;;;;;22.82;21.37;96703.28;6225306;27;110264;-60
2024/01/31 08:28:53;;;;;;;8.70;7.90;;;;;;;22.85;21.26;96693.94;6234508;27;109089;-60
2024/01/31 08:32:18;;;;;;;9.30;8.40;;;;;;;22.87;21.50;96697.16;6235137;27;111472;-60
2024/01/31 08:35:21;;;;;;;9.23;8.43;;;;;;;22.86;20.95;96692.91;6234974;27;108810;-60
2024/01/31 08:38:24;;;;;;;9.05;8.23;;;;;;;22.86;21.67;96699.03;6223437;27;110757;-58
2024/01/31 08:41:27;;;;;;;9.10;8.30;;;;;;;22.85;21.51;96694.78;6234301;27;109172;-57
2024/01/31 08:44:30;;;;;;;9.07;8.30;;;;;;;22.85;21.23;96699.28;6234810;28;109063;-58
2024/01/31 08:47:35;;;;;;;9.25;8.45;;;;;;;22.84;21.32;96695.00;6233104;27;108808;-57
2024/01/31 08:50:38;;;;;;;8.70;7.90;;;;;;;22.81;21.53;96692.88;6225240;28;110639;-58
2024/01/31 08:53:42;;;;;;;9.02;8.23;;;;;;;22.79;21.58;96687.81;6234627;27;110157;-58
2024/01/31 08:56:45;;;;;;;8.82;8.02;;;;;;;22.78;21.67;96682.75;6234450;27;110604;-58
2024/01/31 08:59:48;;;;;;;8.95;8.05;;;;;;;22.79;21.33;96676.34;6224962;27;109687;-61
2024/01/31 09:02:53;;;;;;;8.70;7.80;;;;;;;22.74;21.97;96663.81;6233516;27;109161;-56
2024/01/31 09:05:57;;;;;;;9.25;8.35;;;;;;;22.73;21.49;96672.09;6233889;27;109096;-56
2024/01/31 09:09:00;;;;;;;8.70;7.90;;;;;;;22.70;21.65;96663.56;6233621;27;109413;-56
2024/01/31 09:12:05;;;;;;;8.50;7.80;;;;;;;22.67;21.72;96657.94;6224277;27;109080;-57
2024/01/31 09:15:09;;;;;;;9.00;8.20;;;;;;;22.64;21.32;96661.94;6234634;27;109208;-58
2024/01/31 09:18:13;;;;;;;8.43;7.63;;;;;;;22.59;21.72;96653.97;6234022;27;109186;-56
2024/01/31 09:21:22;;;;;;;8.63;7.93;;;;;;;22.59;21.82;96645.97;6233560;27;109054;-56
2024/01/31 09:24:25;;;;;;;8.20;7.50;;;;;;;22.59;22.05;96642.50;6223436;28;110260;-56
2024/01/31 09:27:28;;;;;;;8.60;7.80;;;;;;;22.59;21.95;96642.50;6233498;27;109661;-56
2024/01/31 09:30:31;;;;;;;8.30;7.50;;;;;;;22.58;22.31;96636.38;6234052;27;109428;-56
2024/01/31 09:33:35;;;;;;;8.38;7.57;;;;;;;22.58;22.20;96628.34;6225184;27;109438;-56
2024/01/31 09:36:38;;;;;;;8.23;7.53;;;;;;;22.56;21.83;96621.66;6211039;28;110433;-57
2024/01/31 09:39:41;;;;;;;8.27;7.55;;;;;;;22.56;21.97;96617.13;6232888;27;110034;-56
2024/01/31 09:42:45;;;;;;;7.88;7.10;;;;;;;22.58;22.24;96606.22;6233514;27;109836;-58
2024/01/31 09:45:48;;;;;;;8.20;7.40;;;;;;;22.58;22.13;96607.00;6222128;27;109353;-58
2024/01/31 09:48:53;;;;;;;8.13;7.32;;;;;;;22.59;22.20;96600.59;6208786;28;109105;-60
2024/01/31 09:51:59;;;;;;;8.20;7.50;;;;;;;22.61;21.80;96590.47;6217615;28;109551;-60
2024/01/31 09:55:04;;;;;;;8.23;7.53;;;;;;;22.63;21.92;96585.66;6233148;27;109286;-60
2024/01/31 09:58:07;;;;;;;7.93;7.22;;;;;;;22.63;22.35;96580.31;6221817;27;111168;-60
2024/01/31 10:01:13;;;;;;;8.43;7.63;;;;;;;22.63;21.97;96580.31;6232892;27;109160;-59
2024/01/31 10:04:28;;;;;;;8.40;7.60;;;;;;;22.64;22.53;96567.75;6233156;27;109150;-59
2024/01/31 10:07:31;;;;;;;8.60;7.80;;;;;;;22.68;22.11;96569.63;6228035;27;110194;-59
2024/01/31 10:10:35;;;;;;;8.82;8.00;;;;;;;22.68;22.55;96563.47;6226755;27;109136;-59
2024/01/31 10:13:38;;;;;;;7.82;7.13;;;;;;;22.70;22.38;96556.81;6232555;27;108983;-59
2024/01/31 10:16:42;;;;;;;8.23;7.53;;;;;;;22.71;22.45;96552.28;6232782;27;110321;-59
2024/01/31 10:19:46;;;;;;;8.38;7.63;;;;;;;22.72;22.44;96551.22;6222857;27;109059;-59
2024/01/31 10:22:50;;;;;;;8.40;7.60;;;;;;;22.75;22.24;96539.19;6232597;27;109821;-59
2024/01/31 10:25:53;;;;;;;8.50;7.70;;;;;;;22.77;22.42;96537.03;6232771;27;110050;-61
2024/01/31 10:28:58;;;;;;;8.50;7.70;;;;;;;22.78;22.55;96533.28;6232210;27;109574;-59
2024/01/31 10:32:15;;;;;;;8.50;7.70;;;;;;;22.75;22.49;96531.19;6222853;27;109449;-60
2024/01/31 10:35:21;;;;;;;8.07;7.38;;;;;;;22.77;22.03;96524.50;6232617;27;109265;-60
2024/01/31 10:38:46;;;;;;;8.10;7.40;;;;;;;22.79;22.16;96519.69;6232648;27;108700;-60
2024/01/31 10:41:50;;;;;;;8.95;8.13;;;;;;;22.79;22.40;96516.22;6226275;27;109120;-61
2024/01/31 10:44:54;;;;;;;8.70;7.90;;;;;;;22.79;22.16;96510.88;6228179;27;109541;-60
2024/01/31 10:47:57;;;;;;;8.40;7.60;;;;;;;22.80;22.25;96504.47;6232248;27;109015;-60
2024/01/31 10:51:04;;;;;;;8.15;7.45;;;;;;;22.81;22.64;96495.38;6232247;27;109124;-60
2024/01/31 10:54:08;;;;;;;9.30;8.40;;;;;;;22.77;22.39;96494.34;6221801;27;110346;-60
2024/01/31 10:57:13;;;;;;;9.10;8.30;;;;;;;22.76;22.71;96488.19;6232238;27;110353;-60
2024/01/31 11:00:23;;;;;;;8.77;7.97;;;;;;;22.75;22.50;96478.59;6232132;27;109150;-61
2024/01/31 11:03:27;;;;;;;8.13;7.43;;;;;;;22.77;22.25;96473.00;6232470;27;110057;-61
2024/01/31 11:06:40;;;;;;;8.00;7.30;;;;;;;22.76;22.85;96472.19;6222172;27;109993;-61
2024/01/31 11:09:44;;;;;;;9.05;8.15;;;;;;;22.76;22.60;96466.84;6233524;27;109088;-61
2024/01/31 11:12:57;;;;;;;8.52;7.70;;;;;;;22.76;22.07;96458.06;6235739;27;110157;-61
2024/01/31 11:16:00;;;;;;;8.90;8.10;;;;;;;22.76;22.79;96455.38;6229793;27;109471;-60
2024/01/31 11:19:04;;;;;;;8.60;7.80;;;;;;;22.72;22.75;96449.00;6233827;27;109180;-61
2024/01/31 11:22:09;;;;;;;8.50;7.70;;;;;;;22.71;22.98;96453.53;6236012;27;109240;-61
2024/01/31 11:25:12;;;;;;;9.30;8.45;;;;;;;22.68;23.05;96432.72;6236010;27;109258;-60
2024/01/31 11:28:17;;;;;;;8.50;7.80;;;;;;;22.68;23.09;96432.72;6225797;27;109154;-62
2024/01/31 11:31:20;;;;;;;8.23;7.43;;;;;;;22.67;22.70;96431.94;6236257;27;109074;-61
2024/01/31 11:34:24;;;;;;;8.68;7.88;;;;;;;22.67;23.14;96423.13;6236419;27;110194;-60
2024/01/31 11:37:29;;;;;;;7.93;7.13;;;;;;;22.66;22.79;96427.66;6236380;27;110118;-60
2024/01/31 11:40:32;;;;;;;8.95;8.15;;;;;;;22.62;22.72;96420.50;6225438;27;111182;-60
2024/01/31 11:43:35;;;;;;;8.10;7.40;;;;;;;22.56;22.79;96409.03;6234949;27;109297;-60
2024/01/31 11:46:39;;;;;;;8.40;7.60;;;;;;;22.60;22.61;96410.09;6235552;27;109250;-61
2024/01/31 11:49:42;;;;;;;8.60;7.80;;;;;;;22.61;23.02;96411.69;6230775;27;109127;-60
2024/01/31 11:52:47;;;;;;;7.90;7.20;;;;;;;22.60;23.11;96406.63;6230068;27;109084;-61
2024/01/31 11:55:50;;;;;;;8.03;7.23;;;;;;;22.61;22.95;96400.22;6236174;28;110244;-61
2024/01/31 11:58:55;;;;;;;8.40;7.70;;;;;;;22.55;22.77;96402.09;6234629;27;109761;-61
2024/01/31 12:01:59;;;;;;;8.13;7.33;;;;;;;22.55;23.40;96396.75;6225651;27;109309;-62
2024/01/31 12:05:03;;;;;;;8.40;7.60;;;;;;;22.52;23.31;96385.84;6235845;27;110033;-61
2024/01/31 12:08:10;;;;;;;8.30;7.50;;;;;;;22.51;23.26;96385.03;6234703;27;109378;-59
2024/01/31 12:11:14;;;;;;;8.40;7.60;;;;;;;22.54;22.83;96381.84;6235090;27;109123;-59
2024/01/31 12:14:17;;;;;;;8.02;7.32;;;;;;;22.52;23.42;96380.50;6223222;27;109100;-59
2024/01/31 12:17:21;;;;;;;8.25;7.45;;;;;;;22.51;22.85;96381.56;6235155;27;109209;-59
2024/01/31 12:20:25;;;;;;;8.20;7.40;;;;;;;22.46;23.53;96382.38;6234719;27;109072;-59
2024/01/31 12:23:31;;;;;;;7.50;6.80;;;;;;;22.46;23.09;96378.94;6233529;27;109182;-59
2024/01/31 12:26:34;;;;;;;7.85;7.15;;;;;;;22.44;23.26;96381.88;6228046;27;109167;-59
2024/01/31 12:29:37;;;;;;;7.77;7.07;;;;;;;22.40;23.06;96375.50;6234757;27;109247;-59
2024/01/31 12:32:42;;;;;;;8.20;7.30;;;;;;;22.36;23.48;96371.78;6235103;27;109240;-60
2024/01/31 12:35:45;;;;;;;7.80;7.10;;;;;;;22.44;23.51;96363.19;6225166;27;109101;-59
2024/01/31 12:38:50;;;;;;;8.43;6.70;;;;;;;22.52;23.58;96367.19;6234399;27;109336;-59
2024/01/31 12:41:54;;;;;;;7.60;6.90;;;;;;;22.52;23.23;96370.63;6235041;27;109431;-60
2024/01/31 12:44:58;;;;;;;8.00;7.30;;;;;;;22.54;23.33;96368.50;6234449;27;109993;-60
2024/01/31 12:48:01;;;;;;;8.05;7.30;;;;;;;22.53;23.40;96361.56;6223841;27;109691;-59
2024/01/31 12:51:04;;;;;;;7.63;6.93;;;;;;;22.51;23.61;96358.34;6234517;27;109023;-60
2024/01/31 12:54:09;;;;;;;8.23;7.43;;;;;;;22.44;23.99;96352.53;6234589;27;109200;-60
2024/01/31 12:57:14;;;;;;;7.87;7.10;;;;;;;22.37;24.30;96363.50;6234473;27;109104;-60
2024/01/31 13:00:18;;;;;;;7.40;6.70;;;;;;;22.35;23.91;96365.66;6223593;27;109356;-58
2024/01/31 13:03:21;;;;;;;7.90;7.20;;;;;;;22.32;24.34;96357.38;6234485;27;109947;-60
2024/01/31 13:06:25;;;;;;;8.50;6.70;;;;;;;22.30;24.02;96356.88;6234512;27;109259;-60
2024/01/31 13:09:30;;;;;;;7.80;7.00;;;;;;;22.25;24.05;96360.38;6228631;27;109370;-60
2024/01/31 13:12:33;;;;;;;7.75;7.05;;;;;;;22.24;24.14;96352.66;6227810;27;109046;-60
2024/01/31 13:15:36;;;;;;;7.00;6.30;;;;;;;22.24;23.77;96352.66;6233145;27;109031;-60
2024/01/31 13:18:39;;;;;;;7.55;6.85;;;;;;;22.24;23.67;96357.97;6234384;27;109412;-57
2024/01/31 13:21:49;;;;;;;6.70;6.10;;;;;;;22.21;23.92;96359.31;6223881;27;108831;-57
2024/01/31 13:24:53;;;;;;;7.43;6.68;;;;;;;22.17;23.91;96358.25;6234032;27;109191;-56
2024/01/31 13:27:57;;;;;;;6.90;6.30;;;;;;;22.19;23.71;96360.69;6233515;27;109059;-57
2024/01/31 13:31:00;;;;;;;6.95;6.25;;;;;;;22.20;24.03;96354.28;6233399;27;109175;-56
2024/01/31 13:34:03;;;;;;;6.80;6.10;;;;;;;22.20;23.65;96355.06;6222338;28;109021;-57
2024/01/31 13:37:07;;;;;;;6.70;6.00;;;;;;;22.20;24.16;96346.28;6234207;27;110124;-57
2024/01/31 13:40:12;;;;;;;6.67;6.07;;;;;;;22.20;23.78;96347.06;6233736;27;109230;-57
2024/01/31 13:43:16;;;;;;;7.00;6.40;;;;;;;22.15;23.69;96339.06;6229300;27;110237;-57
2024/01/31 13:46:19;;;;;;;6.90;6.20;;;;;;;22.18;23.79;96335.06;6226922;27;110166;-57
2024/01/31 13:49:22;;;;;;;6.88;6.28;;;;;;;22.18;23.74;96337.72;6233337;27;109081;-57
2024/01/31 13:52:26;;;;;;;7.60;6.90;;;;;;;22.17;23.93;96330.78;6232877;27;109198;-57
2024/01/31 13:55:30;;;;;;;7.03;6.43;;;;;;;22.17;24.16;96330.78;6198342;28;110523;-58
2024/01/31 13:58:33;;;;;;;7.28;6.57;;;;;;;22.16;23.43;96334.53;6216398;28;108842;-57
2024/01/31 14:01:36;;;;;;;7.13;6.43;;;;;;;22.16;24.07;96334.53;6232928;27;109410;-57
2024/01/31 14:04:40;;;;;;;6.40;5.80;;;;;;;22.18;23.61;96335.06;6233223;27;109290;-57
2024/01/31 14:07:43;;;;;;;6.70;6.10;;;;;;;22.18;23.54;96332.38;6222603;27;109146;-57
2024/01/31 14:10:47;;;;;;;6.40;5.80;;;;;;;22.17;23.76;96322.78;6232884;27;109066;-57
2024/01/31 14:13:50;;;;;;;6.60;6.00;;;;;;;22.18;23.91;96321.72;6232353;27;110026;-57